sensor_id;sensor_type;location;lat;lon;timestamp;P1;durP1;ratioP1;P2;durP2;ratioP2
8048;SDS011;20935;42.660;23.342;2023-02-11T00:00:23;19.43;;;12.40;;
8048;SDS011;20935;42.660;23.342;2023-02-11T00:03:10;16.97;;;11.23;;
8048;SDS011;20935;42.660;23.342;2023-02-11T00:05:56;20.60;;;8.20;;
8048;SDS011;20935;42.660;23.342;2023-02-11T00:08:43;20.27;;;11.90;;
8048;SDS011;20935;42.660;23.342;2023-02-11T00:11:28;20.33;;;13.23;;
8048;SDS011;20935;42.660;23.342;2023-02-11T00:14:13;17.27;;;11.10;;
8048;SDS011;20935;42.660;23.342;2023-02-11T00:16:59;19.73;;;10.50;;
8048;SDS011;20935;42.660;23.342;2023-02-11T00:19:49;18.43;;;10.60;;
8048;SDS011;20935;42.660;23.342;2023-02-11T00:22:34;17.10;;;11.37;;
8048;SDS011;20935;42.660;23.342;2023-02-11T00:25:20;14.17;;;9.30;;
8048;SDS011;20935;42.660;23.342;2023-02-11T00:28:05;12.63;;;8.53;;
8048;SDS011;20935;42.660;23.342;2023-02-11T00:30:53;18.43;;;11.23;;
8048;SDS011;20935;42.660;23.342;2023-02-11T00:33:38;20.30;;;11.30;;
8048;SDS011;20935;42.660;23.342;2023-02-11T00:36:25;15.90;;;10.77;;
8048;SDS011;20935;42.660;23.342;2023-02-11T00:39:12;12.40;;;9.17;;
8048;SDS011;20935;42.660;23.342;2023-02-11T00:41:57;16.17;;;11.13;;
8048;SDS011;20935;42.660;23.342;2023-02-11T00:44:43;17.57;;;10.50;;
8048;SDS011;20935;42.660;23.342;2023-02-11T00:47:28;15.27;;;10.53;;
8048;SDS011;20935;42.660;23.342;2023-02-11T00:50:14;18.20;;;11.13;;
8048;SDS011;20935;42.660;23.342;2023-02-11T00:53:00;17.33;;;10.63;;
8048;SDS011;20935;42.660;23.342;2023-02-11T00:55:46;13.48;;;7.22;;
8048;SDS011;20935;42.660;23.342;2023-02-11T00:58:31;17.10;;;10.90;;
8048;SDS011;20935;42.660;23.342;2023-02-11T01:01:17;15.07;;;10.43;;
8048;SDS011;20935;42.660;23.342;2023-02-11T01:04:02;15.65;;;8.43;;
8048;SDS011;20935;42.660;23.342;2023-02-11T01:06:48;12.40;;;8.87;;
8048;SDS011;20935;42.660;23.342;2023-02-11T01:09:37;14.30;;;9.77;;
8048;SDS011;20935;42.660;23.342;2023-02-11T01:12:23;19.83;;;12.30;;
8048;SDS011;20935;42.660;23.342;2023-02-11T01:15:10;17.53;;;10.67;;
8048;SDS011;20935;42.660;23.342;2023-02-11T01:17:56;13.30;;;8.90;;
8048;SDS011;20935;42.660;23.342;2023-02-11T01:20:41;19.47;;;10.87;;
8048;SDS011;20935;42.660;23.342;2023-02-11T01:23:26;16.57;;;10.93;;
8048;SDS011;20935;42.660;23.342;2023-02-11T01:26:16;19.73;;;10.53;;
8048;SDS011;20935;42.660;23.342;2023-02-11T01:29:01;14.70;;;10.23;;
8048;SDS011;20935;42.660;23.342;2023-02-11T01:31:47;9.83;;;6.83;;
8048;SDS011;20935;42.660;23.342;2023-02-11T01:34:33;9.63;;;7.10;;
8048;SDS011;20935;42.660;23.342;2023-02-11T01:37:18;18.70;;;10.88;;
8048;SDS011;20935;42.660;23.342;2023-02-11T01:40:05;16.67;;;9.93;;
8048;SDS011;20935;42.660;23.342;2023-02-11T01:42:56;15.45;;;9.45;;
8048;SDS011;20935;42.660;23.342;2023-02-11T01:48:58;16.92;;;10.10;;
8048;SDS011;20935;42.660;23.342;2023-02-11T01:51:49;15.93;;;10.55;;
8048;SDS011;20935;42.660;23.342;2023-02-11T01:54:39;14.23;;;9.47;;
8048;SDS011;20935;42.660;23.342;2023-02-11T01:57:46;14.10;;;8.95;;
8048;SDS011;20935;42.660;23.342;2023-02-11T02:00:37;19.98;;;11.85;;
8048;SDS011;20935;42.660;23.342;2023-02-11T02:03:26;18.73;;;11.80;;
8048;SDS011;20935;42.660;23.342;2023-02-11T02:06:14;18.20;;;10.75;;
8048;SDS011;20935;42.660;23.342;2023-02-11T02:09:04;17.10;;;11.43;;
8048;SDS011;20935;42.660;23.342;2023-02-11T02:11:53;21.00;;;11.53;;
8048;SDS011;20935;42.660;23.342;2023-02-11T02:14:39;16.85;;;10.88;;
8048;SDS011;20935;42.660;23.342;2023-02-11T02:17:28;16.43;;;10.33;;
8048;SDS011;20935;42.660;23.342;2023-02-11T02:30:23;14.77;;;8.88;;
8048;SDS011;20935;42.660;23.342;2023-02-11T02:33:28;19.80;;;12.83;;
8048;SDS011;20935;42.660;23.342;2023-02-11T02:36:22;19.50;;;11.15;;
8048;SDS011;20935;42.660;23.342;2023-02-11T02:39:17;18.55;;;11.70;;
8048;SDS011;20935;42.660;23.342;2023-02-11T02:42:08;20.17;;;12.07;;
8048;SDS011;20935;42.660;23.342;2023-02-11T02:44:57;16.92;;;10.43;;
8048;SDS011;20935;42.660;23.342;2023-02-11T02:47:43;15.82;;;9.88;;
8048;SDS011;20935;42.660;23.342;2023-02-11T02:50:30;19.08;;;11.95;;
8048;SDS011;20935;42.660;23.342;2023-02-11T02:53:20;19.53;;;11.63;;
8048;SDS011;20935;42.660;23.342;2023-02-11T02:56:17;14.67;;;11.23;;
8048;SDS011;20935;42.660;23.342;2023-02-11T03:02:25;22.10;;;12.18;;
8048;SDS011;20935;42.660;23.342;2023-02-11T03:05:16;15.30;;;10.70;;
8048;SDS011;20935;42.660;23.342;2023-02-11T03:08:08;17.07;;;11.20;;
8048;SDS011;20935;42.660;23.342;2023-02-11T03:10:59;16.13;;;10.70;;
8048;SDS011;20935;42.660;23.342;2023-02-11T03:13:46;16.37;;;9.90;;
8048;SDS011;20935;42.660;23.342;2023-02-11T03:16:33;15.87;;;10.33;;
8048;SDS011;20935;42.660;23.342;2023-02-11T03:19:21;21.40;;;11.18;;
8048;SDS011;20935;42.660;23.342;2023-02-11T03:22:12;17.98;;;12.10;;
8048;SDS011;20935;42.660;23.342;2023-02-11T03:25:02;15.70;;;11.68;;
8048;SDS011;20935;42.660;23.342;2023-02-11T03:27:50;16.67;;;11.37;;
8048;SDS011;20935;42.660;23.342;2023-02-11T03:30:39;20.42;;;10.60;;
8048;SDS011;20935;42.660;23.342;2023-02-11T03:33:29;17.30;;;11.73;;
8048;SDS011;20935;42.660;23.342;2023-02-11T03:36:22;18.63;;;11.40;;
8048;SDS011;20935;42.660;23.342;2023-02-11T03:39:11;17.75;;;11.85;;
8048;SDS011;20935;42.660;23.342;2023-02-11T03:41:59;21.65;;;11.90;;
8048;SDS011;20935;42.660;23.342;2023-02-11T03:44:48;20.00;;;12.93;;
8048;SDS011;20935;42.660;23.342;2023-02-11T03:47:38;13.25;;;9.63;;
8048;SDS011;20935;42.660;23.342;2023-02-11T03:50:30;19.33;;;11.55;;
8048;SDS011;20935;42.660;23.342;2023-02-11T03:53:19;20.40;;;12.00;;
8048;SDS011;20935;42.660;23.342;2023-02-11T03:56:07;16.00;;;11.00;;
8048;SDS011;20935;42.660;23.342;2023-02-11T03:58:58;17.65;;;10.38;;
8048;SDS011;20935;42.660;23.342;2023-02-11T04:01:44;20.65;;;12.00;;
8048;SDS011;20935;42.660;23.342;2023-02-11T04:04:29;17.08;;;11.52;;
8048;SDS011;20935;42.660;23.342;2023-02-11T04:07:14;18.50;;;11.45;;
8048;SDS011;20935;42.660;23.342;2023-02-11T04:10:00;21.58;;;12.77;;
8048;SDS011;20935;42.660;23.342;2023-02-11T04:12:45;16.50;;;10.93;;
8048;SDS011;20935;42.660;23.342;2023-02-11T04:15:32;22.52;;;12.77;;
8048;SDS011;20935;42.660;23.342;2023-02-11T04:18:17;17.17;;;12.87;;
8048;SDS011;20935;42.660;23.342;2023-02-11T04:21:03;16.65;;;11.45;;
8048;SDS011;20935;42.660;23.342;2023-02-11T04:23:49;21.47;;;13.17;;
8048;SDS011;20935;42.660;23.342;2023-02-11T04:26:34;21.95;;;13.70;;
8048;SDS011;20935;42.660;23.342;2023-02-11T04:29:20;8.02;;;6.20;;
8048;SDS011;20935;42.660;23.342;2023-02-11T04:32:07;22.58;;;13.75;;
8048;SDS011;20935;42.660;23.342;2023-02-11T04:34:53;20.42;;;11.73;;
8048;SDS011;20935;42.660;23.342;2023-02-11T04:37:39;18.05;;;12.25;;
8048;SDS011;20935;42.660;23.342;2023-02-11T04:40:24;24.30;;;13.82;;
8048;SDS011;20935;42.660;23.342;2023-02-11T04:43:10;17.90;;;12.38;;
8048;SDS011;20935;42.660;23.342;2023-02-11T04:45:55;17.58;;;11.18;;
8048;SDS011;20935;42.660;23.342;2023-02-11T04:48:43;22.92;;;14.50;;
8048;SDS011;20935;42.660;23.342;2023-02-11T04:51:28;23.85;;;14.07;;
8048;SDS011;20935;42.660;23.342;2023-02-11T04:54:13;22.13;;;12.02;;
8048;SDS011;20935;42.660;23.342;2023-02-11T04:56:59;25.25;;;12.27;;
8048;SDS011;20935;42.660;23.342;2023-02-11T04:59:44;22.50;;;12.25;;
8048;SDS011;20935;42.660;23.342;2023-02-11T05:02:34;22.08;;;13.73;;
8048;SDS011;20935;42.660;23.342;2023-02-11T05:05:21;30.90;;;16.20;;
8048;SDS011;20935;42.660;23.342;2023-02-11T05:08:06;27.85;;;15.90;;
8048;SDS011;20935;42.660;23.342;2023-02-11T05:10:52;26.83;;;16.77;;
8048;SDS011;20935;42.660;23.342;2023-02-11T05:13:38;24.77;;;15.38;;
8048;SDS011;20935;42.660;23.342;2023-02-11T05:16:25;26.75;;;16.02;;
8048;SDS011;20935;42.660;23.342;2023-02-11T05:19:10;29.25;;;17.30;;
8048;SDS011;20935;42.660;23.342;2023-02-11T05:21:57;29.08;;;16.42;;
8048;SDS011;20935;42.660;23.342;2023-02-11T05:24:46;31.27;;;16.77;;
8048;SDS011;20935;42.660;23.342;2023-02-11T05:27:34;27.77;;;15.35;;
8048;SDS011;20935;42.660;23.342;2023-02-11T05:30:20;32.35;;;16.75;;
8048;SDS011;20935;42.660;23.342;2023-02-11T05:33:05;30.10;;;15.25;;
8048;SDS011;20935;42.660;23.342;2023-02-11T05:35:50;29.27;;;17.45;;
8048;SDS011;20935;42.660;23.342;2023-02-11T05:38:37;30.85;;;18.02;;
8048;SDS011;20935;42.660;23.342;2023-02-11T05:41:25;30.48;;;18.48;;
8048;SDS011;20935;42.660;23.342;2023-02-11T05:44:10;30.77;;;17.60;;
8048;SDS011;20935;42.660;23.342;2023-02-11T05:46:56;27.90;;;18.45;;
8048;SDS011;20935;42.660;23.342;2023-02-11T05:49:41;32.33;;;18.27;;
8048;SDS011;20935;42.660;23.342;2023-02-11T05:52:27;38.10;;;19.65;;
8048;SDS011;20935;42.660;23.342;2023-02-11T05:55:14;34.88;;;20.10;;
8048;SDS011;20935;42.660;23.342;2023-02-11T05:57:59;33.45;;;18.60;;
8048;SDS011;20935;42.660;23.342;2023-02-11T06:00:45;28.75;;;18.23;;
8048;SDS011;20935;42.660;23.342;2023-02-11T06:03:30;31.45;;;18.02;;
8048;SDS011;20935;42.660;23.342;2023-02-11T06:06:16;35.25;;;18.08;;
8048;SDS011;20935;42.660;23.342;2023-02-11T06:09:02;36.55;;;18.60;;
8048;SDS011;20935;42.660;23.342;2023-02-11T06:11:51;37.35;;;20.58;;
8048;SDS011;20935;42.660;23.342;2023-02-11T06:14:37;38.50;;;19.02;;
8048;SDS011;20935;42.660;23.342;2023-02-11T06:17:22;34.00;;;19.42;;
8048;SDS011;20935;42.660;23.342;2023-02-11T06:20:09;31.63;;;18.95;;
8048;SDS011;20935;42.660;23.342;2023-02-11T06:22:55;32.97;;;17.63;;
8048;SDS011;20935;42.660;23.342;2023-02-11T06:25:40;29.63;;;19.52;;
8048;SDS011;20935;42.660;23.342;2023-02-11T06:28:28;29.38;;;17.10;;
8048;SDS011;20935;42.660;23.342;2023-02-11T06:31:15;29.10;;;18.52;;
8048;SDS011;20935;42.660;23.342;2023-02-11T06:34:00;35.60;;;19.45;;
8048;SDS011;20935;42.660;23.342;2023-02-11T06:36:46;31.15;;;18.95;;
8048;SDS011;20935;42.660;23.342;2023-02-11T06:39:31;30.30;;;17.27;;
8048;SDS011;20935;42.660;23.342;2023-02-11T06:42:16;31.38;;;17.10;;
8048;SDS011;20935;42.660;23.342;2023-02-11T06:45:03;31.83;;;19.55;;
8048;SDS011;20935;42.660;23.342;2023-02-11T06:47:51;30.20;;;18.70;;
8048;SDS011;20935;42.660;23.342;2023-02-11T06:50:37;35.75;;;20.10;;
8048;SDS011;20935;42.660;23.342;2023-02-11T06:53:22;28.75;;;17.48;;
8048;SDS011;20935;42.660;23.342;2023-02-11T06:56:11;32.27;;;18.30;;
8048;SDS011;20935;42.660;23.342;2023-02-11T06:58:58;32.25;;;18.02;;
8048;SDS011;20935;42.660;23.342;2023-02-11T07:01:45;24.60;;;16.33;;
8048;SDS011;20935;42.660;23.342;2023-02-11T07:04:31;29.50;;;18.57;;
8048;SDS011;20935;42.660;23.342;2023-02-11T07:07:17;28.67;;;18.10;;
8048;SDS011;20935;42.660;23.342;2023-02-11T07:10:05;27.73;;;18.53;;
8048;SDS011;20935;42.660;23.342;2023-02-11T07:12:51;26.30;;;13.87;;
8048;SDS011;20935;42.660;23.342;2023-02-11T07:15:37;28.93;;;17.13;;
8048;SDS011;20935;42.660;23.342;2023-02-11T07:18:24;26.63;;;16.17;;
8048;SDS011;20935;42.660;23.342;2023-02-11T07:21:10;27.00;;;17.63;;
8048;SDS011;20935;42.660;23.342;2023-02-11T07:23:59;30.17;;;17.40;;
8048;SDS011;20935;42.660;23.342;2023-02-11T07:26:44;25.90;;;16.87;;
8048;SDS011;20935;42.660;23.342;2023-02-11T07:29:30;25.50;;;16.17;;
8048;SDS011;20935;42.660;23.342;2023-02-11T07:32:15;29.10;;;19.13;;
8048;SDS011;20935;42.660;23.342;2023-02-11T07:35:02;14.27;;;8.43;;
8048;SDS011;20935;42.660;23.342;2023-02-11T07:37:48;29.90;;;18.70;;
8048;SDS011;20935;42.660;23.342;2023-02-11T07:40:34;27.60;;;17.47;;
8048;SDS011;20935;42.660;23.342;2023-02-11T07:43:20;32.57;;;15.97;;
8048;SDS011;20935;42.660;23.342;2023-02-11T07:46:06;30.10;;;16.50;;
8048;SDS011;20935;42.660;23.342;2023-02-11T07:48:52;30.40;;;17.83;;
8048;SDS011;20935;42.660;23.342;2023-02-11T07:51:40;23.10;;;13.50;;
8048;SDS011;20935;42.660;23.342;2023-02-11T07:54:28;30.67;;;17.40;;
8048;SDS011;20935;42.660;23.342;2023-02-11T07:57:14;24.33;;;17.67;;
8048;SDS011;20935;42.660;23.342;2023-02-11T07:59:59;27.50;;;15.70;;
8048;SDS011;20935;42.660;23.342;2023-02-11T08:02:45;20.17;;;11.77;;
8048;SDS011;20935;42.660;23.342;2023-02-11T08:05:36;25.53;;;15.20;;
8048;SDS011;20935;42.660;23.342;2023-02-11T08:08:24;22.93;;;15.80;;
8048;SDS011;20935;42.660;23.342;2023-02-11T08:11:11;25.90;;;16.17;;
8048;SDS011;20935;42.660;23.342;2023-02-11T08:13:58;24.37;;;15.90;;
8048;SDS011;20935;42.660;23.342;2023-02-11T08:16:43;26.67;;;18.87;;
8048;SDS011;20935;42.660;23.342;2023-02-11T08:19:29;28.70;;;18.20;;
8048;SDS011;20935;42.660;23.342;2023-02-11T08:22:14;21.03;;;12.47;;
8048;SDS011;20935;42.660;23.342;2023-02-11T08:25:01;19.73;;;13.77;;
8048;SDS011;20935;42.660;23.342;2023-02-11T08:27:47;28.53;;;15.90;;
8048;SDS011;20935;42.660;23.342;2023-02-11T08:30:32;28.87;;;16.67;;
8048;SDS011;20935;42.660;23.342;2023-02-11T08:33:17;22.93;;;14.90;;
8048;SDS011;20935;42.660;23.342;2023-02-11T08:36:06;14.43;;;9.70;;
8048;SDS011;20935;42.660;23.342;2023-02-11T08:38:53;24.83;;;17.10;;
8048;SDS011;20935;42.660;23.342;2023-02-11T08:41:40;27.83;;;16.70;;
8048;SDS011;20935;42.660;23.342;2023-02-11T08:44:25;29.90;;;19.60;;
8048;SDS011;20935;42.660;23.342;2023-02-11T08:47:10;32.83;;;19.93;;
8048;SDS011;20935;42.660;23.342;2023-02-11T08:49:56;28.90;;;20.13;;
8048;SDS011;20935;42.660;23.342;2023-02-11T08:52:41;27.70;;;17.20;;
8048;SDS011;20935;42.660;23.342;2023-02-11T08:55:27;27.40;;;18.27;;
8048;SDS011;20935;42.660;23.342;2023-02-11T08:58:14;22.40;;;15.10;;
8048;SDS011;20935;42.660;23.342;2023-02-11T09:00:59;26.00;;;16.70;;
8048;SDS011;20935;42.660;23.342;2023-02-11T09:03:45;28.87;;;18.43;;
8048;SDS011;20935;42.660;23.342;2023-02-11T09:06:31;31.47;;;19.07;;
8048;SDS011;20935;42.660;23.342;2023-02-11T09:09:17;30.97;;;20.30;;
8048;SDS011;20935;42.660;23.342;2023-02-11T09:12:03;34.63;;;19.70;;
8048;SDS011;20935;42.660;23.342;2023-02-11T09:14:50;31.10;;;18.50;;
8048;SDS011;20935;42.660;23.342;2023-02-11T09:17:35;27.87;;;18.60;;
8048;SDS011;20935;42.660;23.342;2023-02-11T09:20:21;27.07;;;18.30;;
8048;SDS011;20935;42.660;23.342;2023-02-11T09:23:10;24.57;;;14.63;;
8048;SDS011;20935;42.660;23.342;2023-02-11T09:25:55;27.37;;;17.27;;
8048;SDS011;20935;42.660;23.342;2023-02-11T09:28:40;24.77;;;15.40;;
8048;SDS011;20935;42.660;23.342;2023-02-11T09:31:28;25.60;;;17.10;;
8048;SDS011;20935;42.660;23.342;2023-02-11T09:34:15;25.77;;;16.30;;
8048;SDS011;20935;42.660;23.342;2023-02-11T09:37:00;28.13;;;16.93;;
8048;SDS011;20935;42.660;23.342;2023-02-11T09:39:46;18.50;;;11.27;;
8048;SDS011;20935;42.660;23.342;2023-02-11T09:42:39;24.90;;;15.67;;
8048;SDS011;20935;42.660;23.342;2023-02-11T09:45:29;26.63;;;15.83;;
8048;SDS011;20935;42.660;23.342;2023-02-11T09:48:17;20.07;;;14.63;;
8048;SDS011;20935;42.660;23.342;2023-02-11T09:51:05;14.50;;;10.60;;
8048;SDS011;20935;42.660;23.342;2023-02-11T09:54:04;21.87;;;15.50;;
8048;SDS011;20935;42.660;23.342;2023-02-11T09:56:56;20.57;;;12.47;;
8048;SDS011;20935;42.660;23.342;2023-02-11T09:59:42;25.23;;;15.43;;
8048;SDS011;20935;42.660;23.342;2023-02-11T10:02:29;23.30;;;14.43;;
8048;SDS011;20935;42.660;23.342;2023-02-11T10:05:34;20.20;;;14.57;;
8048;SDS011;20935;42.660;23.342;2023-02-11T10:08:35;23.10;;;13.77;;
8048;SDS011;20935;42.660;23.342;2023-02-11T10:11:32;23.47;;;16.13;;
8048;SDS011;20935;42.660;23.342;2023-02-11T10:14:24;21.27;;;13.33;;
8048;SDS011;20935;42.660;23.342;2023-02-11T10:17:28;21.03;;;14.30;;
8048;SDS011;20935;42.660;23.342;2023-02-11T10:20:22;18.87;;;12.63;;
8048;SDS011;20935;42.660;23.342;2023-02-11T10:23:18;16.93;;;11.40;;
8048;SDS011;20935;42.660;23.342;2023-02-11T10:26:09;20.80;;;13.93;;
8048;SDS011;20935;42.660;23.342;2023-02-11T10:28:58;19.70;;;13.67;;
8048;SDS011;20935;42.660;23.342;2023-02-11T10:31:49;21.53;;;12.63;;
8048;SDS011;20935;42.660;23.342;2023-02-11T10:34:36;21.67;;;13.80;;
8048;SDS011;20935;42.660;23.342;2023-02-11T10:37:24;14.03;;;10.17;;
8048;SDS011;20935;42.660;23.342;2023-02-11T10:40:13;17.40;;;11.50;;
8048;SDS011;20935;42.660;23.342;2023-02-11T10:43:02;14.87;;;10.53;;
8048;SDS011;20935;42.660;23.342;2023-02-11T10:45:49;17.33;;;10.17;;
8048;SDS011;20935;42.660;23.342;2023-02-11T10:48:39;20.80;;;13.97;;
8048;SDS011;20935;42.660;23.342;2023-02-11T10:51:30;19.13;;;12.23;;
8048;SDS011;20935;42.660;23.342;2023-02-11T10:54:17;19.30;;;14.03;;
8048;SDS011;20935;42.660;23.342;2023-02-11T10:57:05;15.70;;;11.07;;
8048;SDS011;20935;42.660;23.342;2023-02-11T10:59:54;14.07;;;7.97;;
8048;SDS011;20935;42.660;23.342;2023-02-11T11:02:43;16.23;;;10.73;;
8048;SDS011;20935;42.660;23.342;2023-02-11T11:05:30;17.03;;;11.77;;
8048;SDS011;20935;42.660;23.342;2023-02-11T11:08:19;17.43;;;12.20;;
8048;SDS011;20935;42.660;23.342;2023-02-11T11:11:06;18.10;;;8.53;;
8048;SDS011;20935;42.660;23.342;2023-02-11T11:13:55;19.53;;;12.40;;
8048;SDS011;20935;42.660;23.342;2023-02-11T11:16:42;19.27;;;12.70;;
8048;SDS011;20935;42.660;23.342;2023-02-11T11:19:37;22.17;;;12.70;;
8048;SDS011;20935;42.660;23.342;2023-02-11T11:22:22;21.43;;;13.10;;
8048;SDS011;20935;42.660;23.342;2023-02-11T11:25:19;20.57;;;11.80;;
8048;SDS011;20935;42.660;23.342;2023-02-11T11:28:08;21.37;;;13.60;;
8048;SDS011;20935;42.660;23.342;2023-02-11T11:31:12;18.13;;;12.13;;
8048;SDS011;20935;42.660;23.342;2023-02-11T11:33:59;19.40;;;10.73;;
8048;SDS011;20935;42.660;23.342;2023-02-11T11:36:47;18.23;;;11.63;;
8048;SDS011;20935;42.660;23.342;2023-02-11T11:39:34;15.63;;;11.43;;
8048;SDS011;20935;42.660;23.342;2023-02-11T11:42:23;16.23;;;9.93;;
8048;SDS011;20935;42.660;23.342;2023-02-11T11:45:17;22.17;;;11.77;;
8048;SDS011;20935;42.660;23.342;2023-02-11T11:48:11;20.40;;;12.23;;
8048;SDS011;20935;42.660;23.342;2023-02-11T11:51:03;17.67;;;11.07;;
8048;SDS011;20935;42.660;23.342;2023-02-11T11:53:52;15.83;;;9.93;;
8048;SDS011;20935;42.660;23.342;2023-02-11T11:56:46;15.77;;;10.57;;
8048;SDS011;20935;42.660;23.342;2023-02-11T11:59:37;6.20;;;5.07;;
8048;SDS011;20935;42.660;23.342;2023-02-11T12:02:38;13.70;;;9.03;;
8048;SDS011;20935;42.660;23.342;2023-02-11T12:05:43;13.63;;;9.73;;
8048;SDS011;20935;42.660;23.342;2023-02-11T12:08:41;12.20;;;8.80;;
8048;SDS011;20935;42.660;23.342;2023-02-11T12:11:37;14.60;;;10.13;;
8048;SDS011;20935;42.660;23.342;2023-02-11T12:14:41;12.57;;;7.80;;
8048;SDS011;20935;42.660;23.342;2023-02-11T12:17:37;12.77;;;8.50;;
8048;SDS011;20935;42.660;23.342;2023-02-11T12:20:37;10.53;;;6.70;;
8048;SDS011;20935;42.660;23.342;2023-02-11T12:23:38;14.00;;;9.10;;
8048;SDS011;20935;42.660;23.342;2023-02-11T12:26:38;12.70;;;8.20;;
8048;SDS011;20935;42.660;23.342;2023-02-11T12:29:30;13.93;;;9.07;;
8048;SDS011;20935;42.660;23.342;2023-02-11T12:32:29;12.30;;;8.13;;
8048;SDS011;20935;42.660;23.342;2023-02-11T12:35:24;11.40;;;8.93;;
8048;SDS011;20935;42.660;23.342;2023-02-11T12:41:36;11.77;;;7.80;;
8048;SDS011;20935;42.660;23.342;2023-02-11T12:45:03;18.10;;;8.87;;
8048;SDS011;20935;42.660;23.342;2023-02-11T12:48:08;12.67;;;8.60;;
8048;SDS011;20935;42.660;23.342;2023-02-11T12:51:08;11.90;;;6.83;;
8048;SDS011;20935;42.660;23.342;2023-02-11T12:54:09;13.87;;;8.33;;
8048;SDS011;20935;42.660;23.342;2023-02-11T12:57:05;19.00;;;9.13;;
8048;SDS011;20935;42.660;23.342;2023-02-11T12:59:57;14.93;;;9.40;;
8048;SDS011;20935;42.660;23.342;2023-02-11T13:02:48;12.83;;;7.17;;
8048;SDS011;20935;42.660;23.342;2023-02-11T13:05:41;13.03;;;8.97;;
8048;SDS011;20935;42.660;23.342;2023-02-11T13:08:32;10.80;;;7.03;;
8048;SDS011;20935;42.660;23.342;2023-02-11T13:11:23;13.90;;;9.10;;
8048;SDS011;20935;42.660;23.342;2023-02-11T13:14:14;10.47;;;6.27;;
8048;SDS011;20935;42.660;23.342;2023-02-11T13:17:12;10.00;;;7.20;;
8048;SDS011;20935;42.660;23.342;2023-02-11T13:20:12;14.73;;;8.93;;
8048;SDS011;20935;42.660;23.342;2023-02-11T13:23:10;12.93;;;8.70;;
8048;SDS011;20935;42.660;23.342;2023-02-11T13:26:04;11.07;;;8.03;;
8048;SDS011;20935;42.660;23.342;2023-02-11T13:28:59;12.47;;;8.43;;
8048;SDS011;20935;42.660;23.342;2023-02-11T13:32:04;11.87;;;8.53;;
8048;SDS011;20935;42.660;23.342;2023-02-11T13:34:55;11.33;;;6.33;;
8048;SDS011;20935;42.660;23.342;2023-02-11T13:37:43;9.57;;;6.87;;
8048;SDS011;20935;42.660;23.342;2023-02-11T13:40:32;10.60;;;7.87;;
8048;SDS011;20935;42.660;23.342;2023-02-11T13:43:20;13.10;;;8.23;;
8048;SDS011;20935;42.660;23.342;2023-02-11T13:46:12;14.80;;;9.50;;
8048;SDS011;20935;42.660;23.342;2023-02-11T13:48:59;12.80;;;8.23;;
8048;SDS011;20935;42.660;23.342;2023-02-11T13:51:45;12.43;;;8.67;;
8048;SDS011;20935;42.660;23.342;2023-02-11T13:54:36;13.53;;;9.10;;
8048;SDS011;20935;42.660;23.342;2023-02-11T13:57:36;11.33;;;7.37;;
8048;SDS011;20935;42.660;23.342;2023-02-11T14:03:36;14.00;;;7.97;;
8048;SDS011;20935;42.660;23.342;2023-02-11T14:06:40;12.37;;;8.40;;
8048;SDS011;20935;42.660;23.342;2023-02-11T14:13:33;11.70;;;7.30;;
8048;SDS011;20935;42.660;23.342;2023-02-11T14:16:20;11.70;;;7.40;;
8048;SDS011;20935;42.660;23.342;2023-02-11T14:19:08;11.63;;;7.90;;
8048;SDS011;20935;42.660;23.342;2023-02-11T14:21:53;14.33;;;8.83;;
8048;SDS011;20935;42.660;23.342;2023-02-11T14:24:48;11.23;;;7.37;;
8048;SDS011;20935;42.660;23.342;2023-02-11T14:27:36;14.83;;;9.13;;
8048;SDS011;20935;42.660;23.342;2023-02-11T14:30:35;11.17;;;8.40;;
8048;SDS011;20935;42.660;23.342;2023-02-11T14:36:46;13.40;;;8.70;;
8048;SDS011;20935;42.660;23.342;2023-02-11T14:39:51;12.90;;;7.37;;
8048;SDS011;20935;42.660;23.342;2023-02-11T14:42:42;7.80;;;5.80;;
8048;SDS011;20935;42.660;23.342;2023-02-11T14:45:28;13.90;;;8.43;;
8048;SDS011;20935;42.660;23.342;2023-02-11T14:48:14;21.70;;;12.33;;
8048;SDS011;20935;42.660;23.342;2023-02-11T14:51:03;16.50;;;9.80;;
8048;SDS011;20935;42.660;23.342;2023-02-11T14:53:53;15.83;;;10.07;;
8048;SDS011;20935;42.660;23.342;2023-02-11T14:56:43;11.43;;;7.17;;
8048;SDS011;20935;42.660;23.342;2023-02-11T14:59:29;15.50;;;10.07;;
8048;SDS011;20935;42.660;23.342;2023-02-11T15:02:19;13.50;;;8.33;;
8048;SDS011;20935;42.660;23.342;2023-02-11T15:05:16;11.53;;;6.17;;
8048;SDS011;20935;42.660;23.342;2023-02-11T15:08:04;14.83;;;8.77;;
8048;SDS011;20935;42.660;23.342;2023-02-11T15:10:50;13.10;;;9.13;;
8048;SDS011;20935;42.660;23.342;2023-02-11T15:13:38;15.53;;;10.67;;
8048;SDS011;20935;42.660;23.342;2023-02-11T15:16:30;13.63;;;9.67;;
8048;SDS011;20935;42.660;23.342;2023-02-11T15:19:19;14.80;;;9.20;;
8048;SDS011;20935;42.660;23.342;2023-02-11T15:22:13;15.40;;;10.83;;
8048;SDS011;20935;42.660;23.342;2023-02-11T15:25:07;15.40;;;9.80;;
8048;SDS011;20935;42.660;23.342;2023-02-11T15:28:00;11.80;;;8.43;;
8048;SDS011;20935;42.660;23.342;2023-02-11T15:31:00;13.13;;;9.90;;
8048;SDS011;20935;42.660;23.342;2023-02-11T15:33:47;16.03;;;10.00;;
8048;SDS011;20935;42.660;23.342;2023-02-11T15:36:33;13.73;;;8.70;;
8048;SDS011;20935;42.660;23.342;2023-02-11T15:39:27;17.17;;;11.07;;
8048;SDS011;20935;42.660;23.342;2023-02-11T15:42:16;14.70;;;9.70;;
8048;SDS011;20935;42.660;23.342;2023-02-11T15:45:08;15.80;;;10.67;;
8048;SDS011;20935;42.660;23.342;2023-02-11T15:48:00;16.93;;;12.90;;
8048;SDS011;20935;42.660;23.342;2023-02-11T15:50:52;15.80;;;9.70;;
8048;SDS011;20935;42.660;23.342;2023-02-11T15:53:39;18.03;;;11.07;;
8048;SDS011;20935;42.660;23.342;2023-02-11T15:56:27;19.63;;;13.30;;
8048;SDS011;20935;42.660;23.342;2023-02-11T15:59:16;22.43;;;12.83;;
8048;SDS011;20935;42.660;23.342;2023-02-11T16:02:06;19.50;;;12.23;;
8048;SDS011;20935;42.660;23.342;2023-02-11T16:04:54;16.00;;;11.03;;
8048;SDS011;20935;42.660;23.342;2023-02-11T16:07:42;13.10;;;8.80;;
8048;SDS011;20935;42.660;23.342;2023-02-11T16:10:30;17.10;;;11.90;;
8048;SDS011;20935;42.660;23.342;2023-02-11T16:13:18;17.83;;;11.57;;
8048;SDS011;20935;42.660;23.342;2023-02-11T16:16:04;14.20;;;11.80;;
8048;SDS011;20935;42.660;23.342;2023-02-11T16:19:03;15.87;;;10.20;;
8048;SDS011;20935;42.660;23.342;2023-02-11T16:21:49;15.37;;;9.33;;
8048;SDS011;20935;42.660;23.342;2023-02-11T16:24:35;18.50;;;11.13;;
8048;SDS011;20935;42.660;23.342;2023-02-11T16:27:22;20.30;;;10.27;;
8048;SDS011;20935;42.660;23.342;2023-02-11T16:30:20;16.17;;;10.03;;
8048;SDS011;20935;42.660;23.342;2023-02-11T16:33:11;17.77;;;11.67;;
8048;SDS011;20935;42.660;23.342;2023-02-11T16:35:57;18.33;;;11.50;;
8048;SDS011;20935;42.660;23.342;2023-02-11T16:38:44;19.80;;;9.90;;
8048;SDS011;20935;42.660;23.342;2023-02-11T16:41:32;13.83;;;10.50;;
8048;SDS011;20935;42.660;23.342;2023-02-11T16:44:18;10.50;;;7.17;;
8048;SDS011;20935;42.660;23.342;2023-02-11T16:47:05;14.63;;;8.93;;
8048;SDS011;20935;42.660;23.342;2023-02-11T16:50:08;19.47;;;10.60;;
8048;SDS011;20935;42.660;23.342;2023-02-11T16:52:56;16.87;;;11.33;;
8048;SDS011;20935;42.660;23.342;2023-02-11T16:55:44;13.40;;;10.60;;
8048;SDS011;20935;42.660;23.342;2023-02-11T16:58:30;15.33;;;10.03;;
8048;SDS011;20935;42.660;23.342;2023-02-11T17:01:16;13.33;;;8.83;;
8048;SDS011;20935;42.660;23.342;2023-02-11T17:04:01;14.37;;;9.03;;